sensor_id;sensor_type;location;lat;lon;timestamp;P1;durP1;ratioP1;P2;durP2;ratioP2
6344;SDS011;3205;42.666;23.264;2023-06-22T00:01:29;10.13;;;7.63;;
6344;SDS011;3205;42.666;23.264;2023-06-22T00:03:55;11.48;;;6.35;;
6344;SDS011;3205;42.666;23.264;2023-06-22T00:06:21;7.40;;;6.75;;
6344;SDS011;3205;42.666;23.264;2023-06-22T00:08:47;8.20;;;6.63;;
6344;SDS011;3205;42.666;23.264;2023-06-22T00:11:14;7.93;;;6.65;;
6344;SDS011;3205;42.666;23.264;2023-06-22T00:13:40;7.97;;;6.95;;
6344;SDS011;3205;42.666;23.264;2023-06-22T00:16:06;8.95;;;6.65;;
6344;SDS011;3205;42.666;23.264;2023-06-22T00:18:33;9.35;;;6.68;;
6344;SDS011;3205;42.666;23.264;2023-06-22T00:20:59;7.72;;;6.30;;
6344;SDS011;3205;42.666;23.264;2023-06-22T00:23:25;8.18;;;7.03;;
6344;SDS011;3205;42.666;23.264;2023-06-22T00:25:52;7.45;;;6.75;;
6344;SDS011;3205;42.666;23.264;2023-06-22T00:28:18;6.97;;;6.38;;
6344;SDS011;3205;42.666;23.264;2023-06-22T00:30:44;8.07;;;7.10;;
6344;SDS011;3205;42.666;23.264;2023-06-22T00:33:11;7.53;;;6.82;;
6344;SDS011;3205;42.666;23.264;2023-06-22T00:35:37;7.75;;;7.05;;
6344;SDS011;3205;42.666;23.264;2023-06-22T00:38:06;9.00;;;7.20;;
6344;SDS011;3205;42.666;23.264;2023-06-22T00:40:33;8.98;;;6.22;;
6344;SDS011;3205;42.666;23.264;2023-06-22T00:42:59;9.25;;;6.85;;
6344;SDS011;3205;42.666;23.264;2023-06-22T00:45:26;8.52;;;7.63;;
6344;SDS011;3205;42.666;23.264;2023-06-22T00:47:53;8.20;;;7.05;;
6344;SDS011;3205;42.666;23.264;2023-06-22T00:50:21;10.98;;;7.00;;
6344;SDS011;3205;42.666;23.264;2023-06-22T00:52:51;8.55;;;7.65;;
6344;SDS011;3205;42.666;23.264;2023-06-22T00:55:18;9.80;;;7.60;;
6344;SDS011;3205;42.666;23.264;2023-06-22T00:57:46;12.45;;;7.90;;
6344;SDS011;3205;42.666;23.264;2023-06-22T01:00:13;10.98;;;7.55;;
6344;SDS011;3205;42.666;23.264;2023-06-22T01:02:41;18.08;;;7.60;;
6344;SDS011;3205;42.666;23.264;2023-06-22T01:05:13;8.95;;;8.00;;
6344;SDS011;3205;42.666;23.264;2023-06-22T01:07:41;10.07;;;7.45;;
6344;SDS011;3205;42.666;23.264;2023-06-22T01:10:18;13.63;;;7.85;;
6344;SDS011;3205;42.666;23.264;2023-06-22T01:12:51;10.82;;;7.72;;
6344;SDS011;3205;42.666;23.264;2023-06-22T01:15:21;14.85;;;7.40;;
6344;SDS011;3205;42.666;23.264;2023-06-22T01:17:52;11.20;;;7.88;;
6344;SDS011;3205;42.666;23.264;2023-06-22T01:20:21;16.27;;;8.15;;
6344;SDS011;3205;42.666;23.264;2023-06-22T01:22:59;13.27;;;7.50;;
6344;SDS011;3205;42.666;23.264;2023-06-22T01:25:36;14.25;;;8.30;;
6344;SDS011;3205;42.666;23.264;2023-06-22T01:28:11;9.98;;;8.20;;
6344;SDS011;3205;42.666;23.264;2023-06-22T01:30:49;9.23;;;7.60;;
6344;SDS011;3205;42.666;23.264;2023-06-22T01:33:25;11.82;;;7.65;;
6344;SDS011;3205;42.666;23.264;2023-06-22T01:35:52;11.43;;;8.32;;
6344;SDS011;3205;42.666;23.264;2023-06-22T01:38:19;13.25;;;8.40;;
6344;SDS011;3205;42.666;23.264;2023-06-22T01:40:45;12.55;;;8.13;;
6344;SDS011;3205;42.666;23.264;2023-06-22T01:43:12;11.27;;;8.63;;
6344;SDS011;3205;42.666;23.264;2023-06-22T01:45:38;9.70;;;8.27;;
6344;SDS011;3205;42.666;23.264;2023-06-22T01:48:05;9.00;;;7.68;;
6344;SDS011;3205;42.666;23.264;2023-06-22T01:50:32;15.00;;;8.13;;
6344;SDS011;3205;42.666;23.264;2023-06-22T01:52:58;8.85;;;7.88;;
6344;SDS011;3205;42.666;23.264;2023-06-22T01:55:24;13.82;;;8.00;;
6344;SDS011;3205;42.666;23.264;2023-06-22T01:57:50;9.48;;;7.68;;
6344;SDS011;3205;42.666;23.264;2023-06-22T02:00:18;12.93;;;8.65;;
6344;SDS011;3205;42.666;23.264;2023-06-22T02:02:59;9.00;;;7.43;;
6344;SDS011;3205;42.666;23.264;2023-06-22T02:05:33;9.45;;;7.93;;
6344;SDS011;3205;42.666;23.264;2023-06-22T02:08:04;11.50;;;8.35;;
6344;SDS011;3205;42.666;23.264;2023-06-22T02:10:34;14.32;;;8.55;;
6344;SDS011;3205;42.666;23.264;2023-06-22T02:13:02;12.40;;;8.32;;
6344;SDS011;3205;42.666;23.264;2023-06-22T02:15:30;10.52;;;7.55;;
6344;SDS011;3205;42.666;23.264;2023-06-22T02:17:56;14.18;;;8.27;;
6344;SDS011;3205;42.666;23.264;2023-06-22T02:20:23;13.10;;;8.15;;
6344;SDS011;3205;42.666;23.264;2023-06-22T02:22:50;11.35;;;8.60;;
6344;SDS011;3205;42.666;23.264;2023-06-22T02:25:16;11.77;;;9.18;;
6344;SDS011;3205;42.666;23.264;2023-06-22T02:27:44;13.88;;;8.90;;
6344;SDS011;3205;42.666;23.264;2023-06-22T02:30:10;10.93;;;8.40;;
6344;SDS011;3205;42.666;23.264;2023-06-22T02:32:37;13.20;;;8.52;;
6344;SDS011;3205;42.666;23.264;2023-06-22T02:35:07;8.80;;;6.95;;
6344;SDS011;3205;42.666;23.264;2023-06-22T02:37:34;10.25;;;8.13;;
6344;SDS011;3205;42.666;23.264;2023-06-22T02:40:01;10.52;;;8.38;;
6344;SDS011;3205;42.666;23.264;2023-06-22T02:42:29;9.32;;;8.30;;
6344;SDS011;3205;42.666;23.264;2023-06-22T02:44:55;10.85;;;7.40;;
6344;SDS011;3205;42.666;23.264;2023-06-22T02:47:21;13.48;;;8.13;;
6344;SDS011;3205;42.666;23.264;2023-06-22T02:49:47;13.35;;;7.45;;
6344;SDS011;3205;42.666;23.264;2023-06-22T02:52:13;10.15;;;7.85;;
6344;SDS011;3205;42.666;23.264;2023-06-22T02:54:39;15.00;;;8.38;;
6344;SDS011;3205;42.666;23.264;2023-06-22T02:57:06;10.57;;;8.40;;
6344;SDS011;3205;42.666;23.264;2023-06-22T02:59:38;13.75;;;8.80;;
6344;SDS011;3205;42.666;23.264;2023-06-22T03:02:05;14.55;;;7.85;;
6344;SDS011;3205;42.666;23.264;2023-06-22T03:04:32;18.88;;;8.27;;
6344;SDS011;3205;42.666;23.264;2023-06-22T03:06:58;17.67;;;8.07;;
6344;SDS011;3205;42.666;23.264;2023-06-22T03:09:26;13.13;;;7.90;;
6344;SDS011;3205;42.666;23.264;2023-06-22T03:11:52;8.63;;;7.72;;
6344;SDS011;3205;42.666;23.264;2023-06-22T03:14:19;11.07;;;8.00;;
6344;SDS011;3205;42.666;23.264;2023-06-22T03:16:46;12.77;;;7.70;;
6344;SDS011;3205;42.666;23.264;2023-06-22T03:19:14;10.95;;;8.02;;
6344;SDS011;3205;42.666;23.264;2023-06-22T03:21:41;12.25;;;8.25;;
6344;SDS011;3205;42.666;23.264;2023-06-22T03:24:08;13.68;;;8.40;;
6344;SDS011;3205;42.666;23.264;2023-06-22T03:26:34;11.93;;;7.93;;
6344;SDS011;3205;42.666;23.264;2023-06-22T03:29:00;14.90;;;7.35;;
6344;SDS011;3205;42.666;23.264;2023-06-22T03:31:27;14.43;;;7.25;;
6344;SDS011;3205;42.666;23.264;2023-06-22T03:33:53;10.65;;;8.02;;
6344;SDS011;3205;42.666;23.264;2023-06-22T03:36:19;23.10;;;7.82;;
6344;SDS011;3205;42.666;23.264;2023-06-22T03:38:45;12.50;;;7.25;;
6344;SDS011;3205;42.666;23.264;2023-06-22T03:41:12;14.25;;;7.30;;
6344;SDS011;3205;42.666;23.264;2023-06-22T03:43:39;13.75;;;7.40;;
6344;SDS011;3205;42.666;23.264;2023-06-22T03:46:05;12.00;;;6.22;;
6344;SDS011;3205;42.666;23.264;2023-06-22T03:48:32;10.90;;;7.03;;
6344;SDS011;3205;42.666;23.264;2023-06-22T03:50:58;7.47;;;6.65;;
6344;SDS011;3205;42.666;23.264;2023-06-22T03:53:25;7.18;;;6.47;;
6344;SDS011;3205;42.666;23.264;2023-06-22T03:55:51;12.38;;;7.00;;
6344;SDS011;3205;42.666;23.264;2023-06-22T03:58:18;8.32;;;6.70;;
6344;SDS011;3205;42.666;23.264;2023-06-22T04:00:45;7.65;;;6.95;;
6344;SDS011;3205;42.666;23.264;2023-06-22T04:03:11;7.25;;;6.65;;
6344;SDS011;3205;42.666;23.264;2023-06-22T04:05:38;7.65;;;6.95;;
6344;SDS011;3205;42.666;23.264;2023-06-22T04:08:04;10.32;;;7.97;;
6344;SDS011;3205;42.666;23.264;2023-06-22T04:10:31;12.23;;;8.15;;
6344;SDS011;3205;42.666;23.264;2023-06-22T04:12:57;14.40;;;8.93;;
6344;SDS011;3205;42.666;23.264;2023-06-22T04:15:23;13.63;;;8.88;;
6344;SDS011;3205;42.666;23.264;2023-06-22T04:17:50;14.30;;;9.48;;
6344;SDS011;3205;42.666;23.264;2023-06-22T04:20:17;15.77;;;9.35;;
6344;SDS011;3205;42.666;23.264;2023-06-22T04:22:43;14.93;;;9.52;;
6344;SDS011;3205;42.666;23.264;2023-06-22T04:25:10;11.88;;;9.80;;
6344;SDS011;3205;42.666;23.264;2023-06-22T04:27:36;12.95;;;9.27;;
6344;SDS011;3205;42.666;23.264;2023-06-22T04:30:05;15.57;;;9.40;;
6344;SDS011;3205;42.666;23.264;2023-06-22T04:32:33;13.82;;;9.52;;
6344;SDS011;3205;42.666;23.264;2023-06-22T04:35:01;11.95;;;9.43;;
6344;SDS011;3205;42.666;23.264;2023-06-22T04:37:27;10.73;;;9.63;;
6344;SDS011;3205;42.666;23.264;2023-06-22T04:39:54;13.35;;;9.48;;
6344;SDS011;3205;42.666;23.264;2023-06-22T04:42:20;12.32;;;9.40;;
6344;SDS011;3205;42.666;23.264;2023-06-22T04:44:46;12.60;;;9.45;;
6344;SDS011;3205;42.666;23.264;2023-06-22T04:47:12;11.52;;;9.30;;
6344;SDS011;3205;42.666;23.264;2023-06-22T04:49:38;12.57;;;9.32;;
6344;SDS011;3205;42.666;23.264;2023-06-22T04:52:06;13.95;;;9.80;;
6344;SDS011;3205;42.666;23.264;2023-06-22T04:54:33;12.68;;;8.80;;
6344;SDS011;3205;42.666;23.264;2023-06-22T04:57:00;10.63;;;9.20;;
6344;SDS011;3205;42.666;23.264;2023-06-22T04:59:27;9.98;;;8.50;;
6344;SDS011;3205;42.666;23.264;2023-06-22T05:01:55;20.88;;;9.43;;
6344;SDS011;3205;42.666;23.264;2023-06-22T05:04:21;11.40;;;10.23;;
6344;SDS011;3205;42.666;23.264;2023-06-22T05:06:48;17.98;;;13.80;;
6344;SDS011;3205;42.666;23.264;2023-06-22T05:09:14;10.05;;;8.68;;
6344;SDS011;3205;42.666;23.264;2023-06-22T05:11:40;10.55;;;9.00;;
6344;SDS011;3205;42.666;23.264;2023-06-22T05:14:07;10.95;;;8.90;;
6344;SDS011;3205;42.666;23.264;2023-06-22T05:16:33;13.35;;;9.10;;
6344;SDS011;3205;42.666;23.264;2023-06-22T05:18:59;18.15;;;9.68;;
6344;SDS011;3205;42.666;23.264;2023-06-22T05:21:29;14.65;;;9.38;;
6344;SDS011;3205;42.666;23.264;2023-06-22T05:23:55;13.35;;;9.68;;
6344;SDS011;3205;42.666;23.264;2023-06-22T05:26:25;11.23;;;10.00;;
6344;SDS011;3205;42.666;23.264;2023-06-22T05:28:52;13.85;;;9.55;;
6344;SDS011;3205;42.666;23.264;2023-06-22T05:31:19;15.18;;;10.30;;
6344;SDS011;3205;42.666;23.264;2023-06-22T05:33:46;13.55;;;9.07;;
6344;SDS011;3205;42.666;23.264;2023-06-22T05:36:14;13.40;;;10.27;;
6344;SDS011;3205;42.666;23.264;2023-06-22T05:38:40;10.52;;;9.27;;
6344;SDS011;3205;42.666;23.264;2023-06-22T05:41:07;12.80;;;9.65;;
6344;SDS011;3205;42.666;23.264;2023-06-22T05:43:33;25.50;;;11.13;;
6344;SDS011;3205;42.666;23.264;2023-06-22T05:46:00;18.85;;;9.43;;
6344;SDS011;3205;42.666;23.264;2023-06-22T05:48:27;12.15;;;9.60;;
6344;SDS011;3205;42.666;23.264;2023-06-22T05:50:53;10.70;;;9.77;;
6344;SDS011;3205;42.666;23.264;2023-06-22T05:53:20;14.00;;;10.32;;
6344;SDS011;3205;42.666;23.264;2023-06-22T05:55:46;16.77;;;12.70;;
6344;SDS011;3205;42.666;23.264;2023-06-22T05:58:12;19.90;;;11.07;;
6344;SDS011;3205;42.666;23.264;2023-06-22T06:00:39;17.35;;;11.75;;
6344;SDS011;3205;42.666;23.264;2023-06-22T06:03:06;13.88;;;10.18;;
6344;SDS011;3205;42.666;23.264;2023-06-22T06:05:33;10.60;;;9.60;;
6344;SDS011;3205;42.666;23.264;2023-06-22T06:08:00;10.52;;;9.18;;
6344;SDS011;3205;42.666;23.264;2023-06-22T06:10:26;15.65;;;9.68;;
6344;SDS011;3205;42.666;23.264;2023-06-22T06:12:52;19.20;;;9.25;;
6344;SDS011;3205;42.666;23.264;2023-06-22T06:15:18;13.73;;;9.48;;
6344;SDS011;3205;42.666;23.264;2023-06-22T06:17:45;11.95;;;9.18;;
6344;SDS011;3205;42.666;23.264;2023-06-22T06:20:12;13.98;;;8.82;;
6344;SDS011;3205;42.666;23.264;2023-06-22T06:22:39;13.13;;;8.80;;
6344;SDS011;3205;42.666;23.264;2023-06-22T06:25:05;10.48;;;8.65;;
6344;SDS011;3205;42.666;23.264;2023-06-22T06:27:32;10.43;;;9.13;;
6344;SDS011;3205;42.666;23.264;2023-06-22T06:29:58;16.38;;;9.65;;
6344;SDS011;3205;42.666;23.264;2023-06-22T06:32:24;16.98;;;9.02;;
6344;SDS011;3205;42.666;23.264;2023-06-22T06:34:50;12.60;;;9.27;;
6344;SDS011;3205;42.666;23.264;2023-06-22T06:37:16;12.27;;;8.18;;
6344;SDS011;3205;42.666;23.264;2023-06-22T06:39:44;15.27;;;8.23;;
6344;SDS011;3205;42.666;23.264;2023-06-22T06:42:10;9.77;;;8.30;;
6344;SDS011;3205;42.666;23.264;2023-06-22T06:44:36;14.27;;;9.02;;
6344;SDS011;3205;42.666;23.264;2023-06-22T06:47:03;15.02;;;8.63;;
6344;SDS011;3205;42.666;23.264;2023-06-22T06:49:29;12.73;;;7.93;;
6344;SDS011;3205;42.666;23.264;2023-06-22T06:51:55;24.20;;;10.10;;
6344;SDS011;3205;42.666;23.264;2023-06-22T06:54:21;21.02;;;9.88;;
6344;SDS011;3205;42.666;23.264;2023-06-22T06:56:48;12.05;;;8.20;;
6344;SDS011;3205;42.666;23.264;2023-06-22T06:59:15;8.77;;;7.90;;
6344;SDS011;3205;42.666;23.264;2023-06-22T07:01:41;9.43;;;7.63;;
6344;SDS011;3205;42.666;23.264;2023-06-22T07:04:09;9.05;;;8.20;;
6344;SDS011;3205;42.666;23.264;2023-06-22T07:06:35;8.40;;;7.60;;
6344;SDS011;3205;42.666;23.264;2023-06-22T07:09:02;9.20;;;7.72;;
6344;SDS011;3205;42.666;23.264;2023-06-22T07:11:29;9.98;;;8.65;;
6344;SDS011;3205;42.666;23.264;2023-06-22T07:13:56;9.50;;;8.50;;
6344;SDS011;3205;42.666;23.264;2023-06-22T07:16:22;13.27;;;8.95;;
6344;SDS011;3205;42.666;23.264;2023-06-22T07:18:51;9.93;;;8.95;;
6344;SDS011;3205;42.666;23.264;2023-06-22T07:21:17;16.45;;;8.50;;
6344;SDS011;3205;42.666;23.264;2023-06-22T07:23:43;10.15;;;7.82;;
6344;SDS011;3205;42.666;23.264;2023-06-22T07:26:12;9.63;;;8.23;;
6344;SDS011;3205;42.666;23.264;2023-06-22T07:28:38;13.63;;;9.35;;
6344;SDS011;3205;42.666;23.264;2023-06-22T07:31:06;10.38;;;9.30;;
6344;SDS011;3205;42.666;23.264;2023-06-22T07:33:32;11.88;;;9.10;;
6344;SDS011;3205;42.666;23.264;2023-06-22T07:35:58;12.93;;;8.60;;
6344;SDS011;3205;42.666;23.264;2023-06-22T07:38:24;9.15;;;8.25;;
6344;SDS011;3205;42.666;23.264;2023-06-22T07:40:50;8.23;;;7.38;;
6344;SDS011;3205;42.666;23.264;2023-06-22T07:43:18;8.57;;;7.90;;
6344;SDS011;3205;42.666;23.264;2023-06-22T07:45:48;9.15;;;8.38;;
6344;SDS011;3205;42.666;23.264;2023-06-22T07:48:19;12.15;;;8.32;;
6344;SDS011;3205;42.666;23.264;2023-06-22T07:50:46;8.85;;;8.00;;
6344;SDS011;3205;42.666;23.264;2023-06-22T07:53:12;15.52;;;8.43;;
6344;SDS011;3205;42.666;23.264;2023-06-22T07:55:38;8.32;;;7.82;;
6344;SDS011;3205;42.666;23.264;2023-06-22T07:58:05;9.60;;;8.60;;
6344;SDS011;3205;42.666;23.264;2023-06-22T08:00:31;9.82;;;8.25;;
6344;SDS011;3205;42.666;23.264;2023-06-22T08:02:58;9.07;;;8.20;;
6344;SDS011;3205;42.666;23.264;2023-06-22T08:05:25;13.20;;;8.98;;
6344;SDS011;3205;42.666;23.264;2023-06-22T08:07:51;9.68;;;8.88;;
6344;SDS011;3205;42.666;23.264;2023-06-22T08:10:18;11.85;;;9.32;;
6344;SDS011;3205;42.666;23.264;2023-06-22T08:12:44;12.13;;;8.52;;
6344;SDS011;3205;42.666;23.264;2023-06-22T08:15:10;12.05;;;8.02;;
6344;SDS011;3205;42.666;23.264;2023-06-22T08:17:36;8.20;;;7.55;;
6344;SDS011;3205;42.666;23.264;2023-06-22T08:20:03;9.05;;;8.20;;
6344;SDS011;3205;42.666;23.264;2023-06-22T08:22:35;9.75;;;8.77;;
6344;SDS011;3205;42.666;23.264;2023-06-22T08:25:02;10.13;;;8.40;;
6344;SDS011;3205;42.666;23.264;2023-06-22T08:27:28;12.95;;;9.85;;
6344;SDS011;3205;42.666;23.264;2023-06-22T08:29:56;10.95;;;7.93;;
6344;SDS011;3205;42.666;23.264;2023-06-22T08:32:24;8.13;;;7.35;;
6344;SDS011;3205;42.666;23.264;2023-06-22T08:34:51;8.90;;;8.00;;
6344;SDS011;3205;42.666;23.264;2023-06-22T08:37:17;8.40;;;7.60;;
6344;SDS011;3205;42.666;23.264;2023-06-22T08:39:44;8.63;;;7.82;;
6344;SDS011;3205;42.666;23.264;2023-06-22T08:42:12;8.80;;;8.18;;
6344;SDS011;3205;42.666;23.264;2023-06-22T08:44:38;9.13;;;8.23;;
6344;SDS011;3205;42.666;23.264;2023-06-22T08:47:04;8.95;;;8.13;;
6344;SDS011;3205;42.666;23.264;2023-06-22T08:49:30;11.25;;;7.85;;
6344;SDS011;3205;42.666;23.264;2023-06-22T08:51:57;11.07;;;9.57;;
6344;SDS011;3205;42.666;23.264;2023-06-22T08:54:26;9.68;;;8.88;;
6344;SDS011;3205;42.666;23.264;2023-06-22T08:56:52;22.67;;;15.27;;
6344;SDS011;3205;42.666;23.264;2023-06-22T08:59:19;9.18;;;8.27;;
6344;SDS011;3205;42.666;23.264;2023-06-22T09:01:45;7.57;;;7.07;;
6344;SDS011;3205;42.666;23.264;2023-06-22T09:04:13;7.70;;;7.10;;
6344;SDS011;3205;42.666;23.264;2023-06-22T09:06:40;7.45;;;6.95;;
6344;SDS011;3205;42.666;23.264;2023-06-22T09:09:11;7.85;;;7.15;;
6344;SDS011;3205;42.666;23.264;2023-06-22T09:11:38;8.38;;;7.47;;
6344;SDS011;3205;42.666;23.264;2023-06-22T09:14:04;9.25;;;8.00;;
6344;SDS011;3205;42.666;23.264;2023-06-22T09:16:31;8.43;;;7.60;;
6344;SDS011;3205;42.666;23.264;2023-06-22T09:18:58;8.18;;;7.55;;
6344;SDS011;3205;42.666;23.264;2023-06-22T09:21:24;8.32;;;7.40;;
6344;SDS011;3205;42.666;23.264;2023-06-22T09:23:50;7.30;;;6.75;;
6344;SDS011;3205;42.666;23.264;2023-06-22T09:26:16;8.43;;;7.82;;
6344;SDS011;3205;42.666;23.264;2023-06-22T09:28:43;9.73;;;7.28;;
6344;SDS011;3205;42.666;23.264;2023-06-22T09:31:10;7.22;;;6.60;;
6344;SDS011;3205;42.666;23.264;2023-06-22T09:33:36;7.55;;;6.85;;
6344;SDS011;3205;42.666;23.264;2023-06-22T09:36:03;7.45;;;6.88;;
6344;SDS011;3205;42.666;23.264;2023-06-22T09:38:30;7.88;;;7.18;;
6344;SDS011;3205;42.666;23.264;2023-06-22T09:40:56;7.63;;;6.97;;
6344;SDS011;3205;42.666;23.264;2023-06-22T09:43:22;8.10;;;7.50;;
6344;SDS011;3205;42.666;23.264;2023-06-22T09:45:48;8.13;;;7.47;;
6344;SDS011;3205;42.666;23.264;2023-06-22T09:48:15;6.93;;;6.53;;
6344;SDS011;3205;42.666;23.264;2023-06-22T09:50:41;8.43;;;6.88;;
6344;SDS011;3205;42.666;23.264;2023-06-22T09:53:08;7.78;;;6.85;;
6344;SDS011;3205;42.666;23.264;2023-06-22T09:55:34;7.25;;;6.68;;
6344;SDS011;3205;42.666;23.264;2023-06-22T09:58:00;7.63;;;7.03;;
6344;SDS011;3205;42.666;23.264;2023-06-22T10:00:26;10.15;;;7.82;;
6344;SDS011;3205;42.666;23.264;2023-06-22T10:02:52;9.35;;;7.35;;
6344;SDS011;3205;42.666;23.264;2023-06-22T10:05:19;7.80;;;7.15;;
6344;SDS011;3205;42.666;23.264;2023-06-22T10:07:47;6.88;;;6.40;;
6344;SDS011;3205;42.666;23.264;2023-06-22T10:10:14;7.28;;;6.85;;
6344;SDS011;3205;42.666;23.264;2023-06-22T10:12:45;7.43;;;6.82;;
6344;SDS011;3205;42.666;23.264;2023-06-22T10:15:13;7.68;;;7.03;;
6344;SDS011;3205;42.666;23.264;2023-06-22T10:17:40;8.38;;;7.57;;
6344;SDS011;3205;42.666;23.264;2023-06-22T10:20:07;7.82;;;7.03;;
6344;SDS011;3205;42.666;23.264;2023-06-22T10:22:37;8.50;;;7.70;;
6344;SDS011;3205;42.666;23.264;2023-06-22T10:25:04;11.27;;;7.68;;
6344;SDS011;3205;42.666;23.264;2023-06-22T10:27:31;9.07;;;7.63;;
6344;SDS011;3205;42.666;23.264;2023-06-22T10:29:57;8.27;;;7.50;;
6344;SDS011;3205;42.666;23.264;2023-06-22T10:32:23;8.85;;;8.15;;
6344;SDS011;3205;42.666;23.264;2023-06-22T10:34:50;12.60;;;7.80;;
6344;SDS011;3205;42.666;23.264;2023-06-22T10:37:16;8.35;;;7.40;;
6344;SDS011;3205;42.666;23.264;2023-06-22T10:39:43;8.98;;;8.18;;
6344;SDS011;3205;42.666;23.264;2023-06-22T10:42:09;8.93;;;7.97;;
6344;SDS011;3205;42.666;23.264;2023-06-22T10:44:35;8.77;;;7.93;;
6344;SDS011;3205;42.666;23.264;2023-06-22T10:47:01;9.70;;;8.70;;
6344;SDS011;3205;42.666;23.264;2023-06-22T10:49:27;9.43;;;8.10;;
6344;SDS011;3205;42.666;23.264;2023-06-22T10:51:53;13.23;;;7.93;;
6344;SDS011;3205;42.666;23.264;2023-06-22T10:54:19;8.70;;;8.00;;
6344;SDS011;3205;42.666;23.264;2023-06-22T10:56:46;9.57;;;8.57;;
6344;SDS011;3205;42.666;23.264;2023-06-22T10:59:12;9.93;;;8.43;;
6344;SDS011;3205;42.666;23.264;2023-06-22T11:01:38;8.70;;;7.90;;
6344;SDS011;3205;42.666;23.264;2023-06-22T11:04:04;13.85;;;8.50;;
6344;SDS011;3205;42.666;23.264;2023-06-22T11:06:30;11.73;;;9.10;;
6344;SDS011;3205;42.666;23.264;2023-06-22T11:11:44;10.23;;;7.93;;
6344;SDS011;3205;42.666;23.264;2023-06-22T11:14:11;11.50;;;8.43;;
6344;SDS011;3205;42.666;23.264;2023-06-22T11:16:37;10.23;;;8.82;;
6344;SDS011;3205;42.666;23.264;2023-06-22T11:19:05;9.70;;;8.48;;
6344;SDS011;3205;42.666;23.264;2023-06-22T11:21:31;10.40;;;8.98;;
6344;SDS011;3205;42.666;23.264;2023-06-22T11:23:57;10.15;;;8.13;;
6344;SDS011;3205;42.666;23.264;2023-06-22T11:26:24;10.13;;;9.18;;
6344;SDS011;3205;42.666;23.264;2023-06-22T11:28:50;8.65;;;7.85;;
6344;SDS011;3205;42.666;23.264;2023-06-22T11:31:17;10.23;;;8.57;;
6344;SDS011;3205;42.666;23.264;2023-06-22T11:33:43;12.73;;;8.30;;
6344;SDS011;3205;42.666;23.264;2023-06-22T11:36:10;19.00;;;9.23;;
6344;SDS011;3205;42.666;23.264;2023-06-22T11:38:36;9.68;;;8.77;;
6344;SDS011;3205;42.666;23.264;2023-06-22T11:41:04;10.75;;;9.60;;
6344;SDS011;3205;42.666;23.264;2023-06-22T11:43:31;10.23;;;8.48;;
6344;SDS011;3205;42.666;23.264;2023-06-22T11:45:57;10.75;;;9.55;;
6344;SDS011;3205;42.666;23.264;2023-06-22T11:48:24;11.57;;;8.88;;
6344;SDS011;3205;42.666;23.264;2023-06-22T11:50:50;10.32;;;9.27;;
6344;SDS011;3205;42.666;23.264;2023-06-22T11:53:16;10.63;;;9.52;;
6344;SDS011;3205;42.666;23.264;2023-06-22T11:55:42;11.23;;;9.90;;
6344;SDS011;3205;42.666;23.264;2023-06-22T11:58:09;10.90;;;9.80;;
6344;SDS011;3205;42.666;23.264;2023-06-22T12:00:36;10.73;;;9.70;;
6344;SDS011;3205;42.666;23.264;2023-06-22T12:03:03;10.98;;;9.50;;
6344;SDS011;3205;42.666;23.264;2023-06-22T12:05:29;9.43;;;8.63;;
6344;SDS011;3205;42.666;23.264;2023-06-22T12:07:55;10.30;;;9.30;;
6344;SDS011;3205;42.666;23.264;2023-06-22T12:10:22;11.23;;;8.90;;
6344;SDS011;3205;42.666;23.264;2023-06-22T12:12:48;9.95;;;9.05;;
6344;SDS011;3205;42.666;23.264;2023-06-22T12:15:14;11.25;;;10.20;;
6344;SDS011;3205;42.666;23.264;2023-06-22T12:17:40;11.20;;;9.60;;
6344;SDS011;3205;42.666;23.264;2023-06-22T12:20:07;10.88;;;9.80;;
6344;SDS011;3205;42.666;23.264;2023-06-22T12:22:34;12.57;;;9.90;;
6344;SDS011;3205;42.666;23.264;2023-06-22T12:25:02;19.42;;;10.38;;
6344;SDS011;3205;42.666;23.264;2023-06-22T12:27:29;11.25;;;10.07;;
6344;SDS011;3205;42.666;23.264;2023-06-22T12:29:55;12.52;;;10.00;;
6344;SDS011;3205;42.666;23.264;2023-06-22T12:32:22;14.40;;;9.73;;
6344;SDS011;3205;42.666;23.264;2023-06-22T12:34:48;13.93;;;9.80;;
6344;SDS011;3205;42.666;23.264;2023-06-22T12:37:14;14.20;;;9.88;;
6344;SDS011;3205;42.666;23.264;2023-06-22T12:39:41;12.82;;;9.63;;
6344;SDS011;3205;42.666;23.264;2023-06-22T12:42:10;15.60;;;9.50;;
6344;SDS011;3205;42.666;23.264;2023-06-22T12:44:37;13.98;;;8.88;;
6344;SDS011;3205;42.666;23.264;2023-06-22T12:47:04;15.00;;;9.52;;
6344;SDS011;3205;42.666;23.264;2023-06-22T12:49:30;11.75;;;8.98;;
6344;SDS011;3205;42.666;23.264;2023-06-22T12:51:56;10.32;;;8.90;;
6344;SDS011;3205;42.666;23.264;2023-06-22T12:54:22;14.15;;;9.93;;
6344;SDS011;3205;42.666;23.264;2023-06-22T12:56:50;14.20;;;9.13;;
6344;SDS011;3205;42.666;23.264;2023-06-22T12:59:16;11.50;;;8.07;;
6344;SDS011;3205;42.666;23.264;2023-06-22T13:01:42;10.35;;;9.27;;
6344;SDS011;3205;42.666;23.264;2023-06-22T13:04:09;11.93;;;8.10;;
6344;SDS011;3205;42.666;23.264;2023-06-22T13:06:36;11.15;;;7.95;;
6344;SDS011;3205;42.666;23.264;2023-06-22T13:09:02;8.60;;;7.32;;
6344;SDS011;3205;42.666;23.264;2023-06-22T13:11:30;15.77;;;8.13;;
6344;SDS011;3205;42.666;23.264;2023-06-22T13:13:56;12.80;;;7.70;;
6344;SDS011;3205;42.666;23.264;2023-06-22T13:16:23;10.05;;;7.18;;
6344;SDS011;3205;42.666;23.264;2023-06-22T13:18:49;10.45;;;6.15;;
6344;SDS011;3205;42.666;23.264;2023-06-22T13:21:15;8.65;;;6.80;;
6344;SDS011;3205;42.666;23.264;2023-06-22T13:23:43;9.88;;;7.18;;
6344;SDS011;3205;42.666;23.264;2023-06-22T13:26:09;11.43;;;7.15;;
6344;SDS011;3205;42.666;23.264;2023-06-22T13:28:35;13.40;;;7.95;;
6344;SDS011;3205;42.666;23.264;2023-06-22T13:31:02;8.30;;;7.53;;
6344;SDS011;3205;42.666;23.264;2023-06-22T13:33:28;8.45;;;7.10;;
6344;SDS011;3205;42.666;23.264;2023-06-22T13:35:54;8.38;;;7.28;;
6344;SDS011;3205;42.666;23.264;2023-06-22T13:38:20;12.27;;;7.97;;
6344;SDS011;3205;42.666;23.264;2023-06-22T13:40:47;12.18;;;8.23;;
6344;SDS011;3205;42.666;23.264;2023-06-22T13:43:13;11.93;;;8.32;;
6344;SDS011;3205;42.666;23.264;2023-06-22T13:45:40;12.98;;;7.78;;
6344;SDS011;3205;42.666;23.264;2023-06-22T13:48:07;8.88;;;7.93;;
6344;SDS011;3205;42.666;23.264;2023-06-22T13:50:33;13.95;;;7.47;;
6344;SDS011;3205;42.666;23.264;2023-06-22T13:53:00;9.23;;;8.18;;
6344;SDS011;3205;42.666;23.264;2023-06-22T13:55:26;9.80;;;8.57;;
6344;SDS011;3205;42.666;23.264;2023-06-22T13:57:52;20.83;;;10.05;;
6344;SDS011;3205;42.666;23.264;2023-06-22T14:00:18;12.95;;;9.13;;
6344;SDS011;3205;42.666;23.264;2023-06-22T14:02:45;9.73;;;8.13;;
6344;SDS011;3205;42.666;23.264;2023-06-22T14:05:11;11.18;;;8.15;;
6344;SDS011;3205;42.666;23.264;2023-06-22T14:07:37;12.00;;;8.20;;
6344;SDS011;3205;42.666;23.264;2023-06-22T14:10:04;15.00;;;8.35;;
6344;SDS011;3205;42.666;23.264;2023-06-22T14:12:31;11.98;;;9.13;;
6344;SDS011;3205;42.666;23.264;2023-06-22T14:14:57;14.02;;;9.40;;
6344;SDS011;3205;42.666;23.264;2023-06-22T14:17:23;15.32;;;9.43;;
6344;SDS011;3205;42.666;23.264;2023-06-22T14:19:51;23.25;;;9.88;;
6344;SDS011;3205;42.666;23.264;2023-06-22T14:22:20;12.55;;;9.15;;
6344;SDS011;3205;42.666;23.264;2023-06-22T14:24:46;12.88;;;9.63;;
6344;SDS011;3205;42.666;23.264;2023-06-22T14:27:13;18.88;;;8.77;;
6344;SDS011;3205;42.666;23.264;2023-06-22T14:29:39;13.35;;;9.25;;
6344;SDS011;3205;42.666;23.264;2023-06-22T14:32:06;13.93;;;8.27;;
6344;SDS011;3205;42.666;23.264;2023-06-22T14:34:32;13.98;;;8.95;;
6344;SDS011;3205;42.666;23.264;2023-06-22T14:37:01;12.90;;;9.23;;
6344;SDS011;3205;42.666;23.264;2023-06-22T14:39:27;11.73;;;8.88;;
6344;SDS011;3205;42.666;23.264;2023-06-22T14:41:54;13.30;;;9.52;;
6344;SDS011;3205;42.666;23.264;2023-06-22T14:44:20;10.50;;;8.90;;
6344;SDS011;3205;42.666;23.264;2023-06-22T14:46:46;15.98;;;9.15;;
6344;SDS011;3205;42.666;23.264;2023-06-22T14:49:12;18.83;;;10.00;;
6344;SDS011;3205;42.666;23.264;2023-06-22T14:51:38;13.90;;;9.82;;
6344;SDS011;3205;42.666;23.264;2023-06-22T14:54:04;32.28;;;15.90;;